createdAt,value
2018-01-20T00:00:28.287Z,1004.35
2018-01-20T00:15:26.369Z,1004.29
2018-01-20T00:23:26.249Z,1004.31
2018-01-20T00:30:26.368Z,1004.28
2018-01-20T00:45:26.374Z,1004.20
2018-01-20T00:58:26.373Z,1004.18
2018-01-20T01:00:26.049Z,1004.22
2018-01-20T01:13:26.377Z,1004.20
2018-01-20T01:15:26.156Z,1004.20
2018-01-20T01:30:26.390Z,1004.24
2018-01-20T01:45:26.400Z,1004.25
2018-01-20T02:00:28.336Z,1004.12
2018-01-20T02:15:26.407Z,1004.11
2018-01-20T02:19:26.115Z,1004.18
2018-01-20T02:30:26.416Z,1004.20
2018-01-20T02:38:26.382Z,1004.20
2018-01-20T02:45:26.420Z,1004.20
2018-01-20T03:00:28.354Z,1003.91
2018-01-20T03:15:26.428Z,1003.87
2018-01-20T03:30:27.466Z,1003.79
2018-01-20T03:39:26.396Z,1003.78
2018-01-20T03:45:26.445Z,1003.78
2018-01-20T04:00:28.193Z,1003.53
2018-01-20T04:15:26.460Z,1003.41
2018-01-20T04:30:27.491Z,1003.50
2018-01-20T04:44:26.451Z,1003.43
2018-01-20T04:45:26.098Z,1003.43
2018-01-20T05:00:28.300Z,1003.36
2018-01-20T05:06:26.404Z,1003.36
2018-01-20T05:15:26.370Z,1003.43
2018-01-20T05:16:26.099Z,1003.43
2018-01-20T05:25:26.455Z,1003.38
2018-01-20T05:30:26.347Z,1003.39
2018-01-20T05:40:26.455Z,1003.23
2018-01-20T05:45:26.387Z,1003.23
2018-01-20T06:01:26.396Z,1003.23
2018-01-20T06:15:26.393Z,1003.22
2018-01-20T06:18:26.135Z,1003.22
2018-01-20T06:19:26.105Z,1003.24
2018-01-20T06:30:26.286Z,1003.22
2018-01-20T06:45:26.219Z,1003.15
2018-01-20T07:00:26.252Z,1003.19
2018-01-20T07:12:26.208Z,1003.32
2018-01-20T07:15:26.332Z,1003.32
2018-01-20T07:30:26.219Z,1003.41
2018-01-20T07:45:26.235Z,1003.42
2018-01-20T08:00:26.213Z,1003.37
2018-01-20T08:01:26.205Z,1003.37
2018-01-20T08:14:26.243Z,1003.30
2018-01-20T08:15:26.254Z,1003.30
2018-01-20T08:30:26.247Z,1003.51
2018-01-20T08:45:26.259Z,1003.46
2018-01-20T08:46:26.271Z,1003.46
2018-01-20T09:00:26.245Z,1003.31
2018-01-20T09:12:26.439Z,1003.26
2018-01-20T09:15:26.256Z,1003.26
2018-01-20T09:30:26.244Z,1003.43
2018-01-20T09:43:26.237Z,1003.43
2018-01-20T09:45:26.236Z,1003.43
2018-01-20T09:54:26.222Z,1003.47
2018-01-20T10:00:26.228Z,1003.36
2018-01-20T10:15:26.266Z,1003.43
2018-01-20T10:26:26.262Z,1003.35
2018-01-20T10:30:26.279Z,1003.21
2018-01-20T10:45:26.211Z,1003.11
2018-01-20T10:53:26.205Z,1002.97
2018-01-20T11:00:26.219Z,1002.88
2018-01-20T11:10:26.224Z,1002.80
2018-01-20T11:15:26.239Z,1002.80
2018-01-20T11:24:26.298Z,1002.64
2018-01-20T11:30:26.241Z,1002.65
2018-01-20T11:45:26.256Z,1002.66
2018-01-20T11:53:26.199Z,1002.58
2018-01-20T12:00:26.206Z,1002.47
2018-01-20T12:11:26.279Z,1002.33
2018-01-20T12:15:26.229Z,1002.33
2018-01-20T12:30:26.293Z,1002.12
2018-01-20T12:38:26.218Z,1002.12
2018-01-20T12:45:26.272Z,1002.08
2018-01-20T13:00:26.278Z,1001.90
2018-01-20T13:15:31.213Z,1001.76
2018-01-20T13:20:26.207Z,1001.73
2018-01-20T13:30:26.235Z,1001.63
2018-01-20T13:37:26.475Z,1001.63
2018-01-20T13:43:26.221Z,1001.61
2018-01-20T13:45:26.246Z,1001.61
2018-01-20T14:00:26.226Z,1001.48
2018-01-20T14:15:31.219Z,1001.49
2018-01-20T14:20:26.205Z,1001.49
2018-01-20T14:30:26.237Z,1001.50
2018-01-20T14:34:26.200Z,1001.50
2018-01-20T14:45:27.249Z,1001.38
2018-01-20T15:00:26.233Z,1001.33
2018-01-20T15:15:26.221Z,1001.40
2018-01-20T15:26:26.324Z,1001.39
2018-01-20T15:30:26.279Z,1001.40
2018-01-20T15:45:31.189Z,1001.37
2018-01-20T16:00:26.233Z,1001.39
2018-01-20T16:05:26.227Z,1001.39
2018-01-20T16:15:26.177Z,1001.36
2018-01-20T16:30:26.166Z,1001.33
2018-01-20T16:45:26.204Z,1001.39
2018-01-20T17:01:26.431Z,1001.47
2018-01-20T17:15:27.464Z,1001.46
2018-01-20T17:30:26.347Z,1001.49
2018-01-20T17:45:27.436Z,1001.62
2018-01-20T18:00:28.741Z,1001.71
2018-01-20T18:15:26.322Z,1001.76
2018-01-20T18:30:26.680Z,1001.80
2018-01-20T18:45:26.364Z,1001.80
2018-01-20T19:00:28.360Z,1001.85
2018-01-20T19:15:28.430Z,1001.95
2018-01-20T19:20:26.308Z,1002.06
2018-01-20T19:30:26.377Z,1002.04
2018-01-20T19:45:26.395Z,1002.14
2018-01-20T20:00:28.378Z,1002.22
2018-01-20T20:15:31.400Z,1002.23
2018-01-20T20:31:26.335Z,1002.20
2018-01-20T20:45:26.419Z,1002.30
2018-01-20T21:00:28.405Z,1002.47
2018-01-20T21:13:27.436Z,1002.60
2018-01-20T21:15:26.091Z,1002.60
2018-01-20T21:30:26.439Z,1002.75
2018-01-20T21:45:31.437Z,1002.79
2018-01-20T22:00:28.630Z,1002.98
2018-01-20T22:11:26.475Z,1003.01
2018-01-20T22:15:26.277Z,1003.01
2018-01-20T22:30:27.487Z,1003.26
2018-01-20T22:45:26.450Z,1003.30
2018-01-20T23:00:28.462Z,1003.53
2018-01-20T23:11:26.442Z,1003.72
2018-01-20T23:15:26.131Z,1003.72
2018-01-20T23:24:26.323Z,1003.85
2018-01-20T23:30:26.447Z,1004.03
2018-01-20T23:36:31.410Z,1004.03
2018-01-20T23:45:31.379Z,1004.09
